sensor_id;sensor_type;location;lat;lon;timestamp;temperature;humidity
8856;DHT22;4464;50.882;4.730;2023-05-20T00:01:45;13.00;95.50
8856;DHT22;4464;50.882;4.730;2023-05-20T00:04:11;13.00;95.80
8856;DHT22;4464;50.882;4.730;2023-05-20T00:06:36;13.00;96.00
8856;DHT22;4464;50.882;4.730;2023-05-20T00:09:02;12.90;96.20
8856;DHT22;4464;50.882;4.730;2023-05-20T00:11:35;12.90;96.30
8856;DHT22;4464;50.882;4.730;2023-05-20T00:14:03;13.00;96.40
8856;DHT22;4464;50.882;4.730;2023-05-20T00:16:29;13.00;96.40
8856;DHT22;4464;50.882;4.730;2023-05-20T00:18:57;13.10;96.40
8856;DHT22;4464;50.882;4.730;2023-05-20T00:21:25;13.00;96.30
8856;DHT22;4464;50.882;4.730;2023-05-20T00:23:51;13.00;96.30
8856;DHT22;4464;50.882;4.730;2023-05-20T00:26:19;13.00;96.70
8856;DHT22;4464;50.882;4.730;2023-05-20T00:28:45;12.90;96.50
8856;DHT22;4464;50.882;4.730;2023-05-20T00:31:11;12.90;96.60
8856;DHT22;4464;50.882;4.730;2023-05-20T00:33:42;12.90;96.60
8856;DHT22;4464;50.882;4.730;2023-05-20T00:36:10;13.00;96.60
8856;DHT22;4464;50.882;4.730;2023-05-20T00:38:38;12.90;96.70
8856;DHT22;4464;50.882;4.730;2023-05-20T00:41:04;12.80;96.30
8856;DHT22;4464;50.882;4.730;2023-05-20T00:43:32;12.90;96.20
8856;DHT22;4464;50.882;4.730;2023-05-20T00:45:57;12.90;96.00
8856;DHT22;4464;50.882;4.730;2023-05-20T00:48:23;13.00;96.00
8856;DHT22;4464;50.882;4.730;2023-05-20T00:50:49;13.10;95.90
8856;DHT22;4464;50.882;4.730;2023-05-20T00:53:16;13.10;95.90
8856;DHT22;4464;50.882;4.730;2023-05-20T00:55:45;13.00;96.00
8856;DHT22;4464;50.882;4.730;2023-05-20T00:58:14;13.10;95.60
8856;DHT22;4464;50.882;4.730;2023-05-20T01:00:42;13.00;95.80
8856;DHT22;4464;50.882;4.730;2023-05-20T01:03:08;13.00;95.80
8856;DHT22;4464;50.882;4.730;2023-05-20T01:05:34;13.10;95.90
8856;DHT22;4464;50.882;4.730;2023-05-20T01:08:00;13.10;95.90
8856;DHT22;4464;50.882;4.730;2023-05-20T01:10:26;13.10;95.70
8856;DHT22;4464;50.882;4.730;2023-05-20T01:12:58;13.00;95.80
8856;DHT22;4464;50.882;4.730;2023-05-20T01:15:28;13.00;95.80
8856;DHT22;4464;50.882;4.730;2023-05-20T01:17:59;13.00;95.90
8856;DHT22;4464;50.882;4.730;2023-05-20T01:20:27;13.00;96.20
8856;DHT22;4464;50.882;4.730;2023-05-20T01:22:55;13.00;96.30
8856;DHT22;4464;50.882;4.730;2023-05-20T01:25:21;12.90;95.90
8856;DHT22;4464;50.882;4.730;2023-05-20T01:27:49;12.90;96.20
8856;DHT22;4464;50.882;4.730;2023-05-20T01:30:17;12.90;96.30
8856;DHT22;4464;50.882;4.730;2023-05-20T01:35:16;12.80;96.20
8856;DHT22;4464;50.882;4.730;2023-05-20T01:37:49;12.70;96.20
8856;DHT22;4464;50.882;4.730;2023-05-20T01:40:17;12.70;96.40
8856;DHT22;4464;50.882;4.730;2023-05-20T01:42:46;12.70;96.50
8856;DHT22;4464;50.882;4.730;2023-05-20T01:45:18;12.70;96.70
8856;DHT22;4464;50.882;4.730;2023-05-20T01:47:46;12.70;96.80
8856;DHT22;4464;50.882;4.730;2023-05-20T01:50:12;12.80;96.80
8856;DHT22;4464;50.882;4.730;2023-05-20T01:52:37;12.60;96.60
8856;DHT22;4464;50.882;4.730;2023-05-20T01:55:03;12.70;97.00
8856;DHT22;4464;50.882;4.730;2023-05-20T01:57:31;12.60;97.00
8856;DHT22;4464;50.882;4.730;2023-05-20T01:59:57;12.60;97.10
8856;DHT22;4464;50.882;4.730;2023-05-20T02:02:23;12.60;97.30
8856;DHT22;4464;50.882;4.730;2023-05-20T02:04:53;12.40;97.20
8856;DHT22;4464;50.882;4.730;2023-05-20T02:07:21;12.40;97.30
8856;DHT22;4464;50.882;4.730;2023-05-20T02:09:47;12.40;97.20
8856;DHT22;4464;50.882;4.730;2023-05-20T02:12:15;12.40;97.30
8856;DHT22;4464;50.882;4.730;2023-05-20T02:14:45;12.40;97.40
8856;DHT22;4464;50.882;4.730;2023-05-20T02:17:15;12.40;97.30
8856;DHT22;4464;50.882;4.730;2023-05-20T02:19:42;12.30;97.40
8856;DHT22;4464;50.882;4.730;2023-05-20T02:22:10;12.30;97.50
8856;DHT22;4464;50.882;4.730;2023-05-20T02:24:36;12.20;97.60
8856;DHT22;4464;50.882;4.730;2023-05-20T02:27:01;12.10;97.80
8856;DHT22;4464;50.882;4.730;2023-05-20T02:29:29;12.00;98.10
8856;DHT22;4464;50.882;4.730;2023-05-20T02:31:55;12.00;98.20
8856;DHT22;4464;50.882;4.730;2023-05-20T02:34:23;11.90;98.40
8856;DHT22;4464;50.882;4.730;2023-05-20T02:36:50;11.80;98.60
8856;DHT22;4464;50.882;4.730;2023-05-20T02:39:17;11.80;98.80
8856;DHT22;4464;50.882;4.730;2023-05-20T02:41:45;11.80;98.80
8856;DHT22;4464;50.882;4.730;2023-05-20T02:44:13;11.80;99.10
8856;DHT22;4464;50.882;4.730;2023-05-20T02:46:39;11.70;99.20
8856;DHT22;4464;50.882;4.730;2023-05-20T02:49:05;11.70;99.40
8856;DHT22;4464;50.882;4.730;2023-05-20T02:51:30;11.70;99.50
8856;DHT22;4464;50.882;4.730;2023-05-20T02:53:57;11.70;99.50
8856;DHT22;4464;50.882;4.730;2023-05-20T02:56:23;11.70;99.60
8856;DHT22;4464;50.882;4.730;2023-05-20T02:58:51;11.70;99.80
8856;DHT22;4464;50.882;4.730;2023-05-20T03:01:17;11.70;99.80
8856;DHT22;4464;50.882;4.730;2023-05-20T03:03:47;11.60;99.90
8856;DHT22;4464;50.882;4.730;2023-05-20T03:06:13;11.60;99.90
8856;DHT22;4464;50.882;4.730;2023-05-20T03:08:41;11.50;99.90
8856;DHT22;4464;50.882;4.730;2023-05-20T03:11:07;11.50;99.90
8856;DHT22;4464;50.882;4.730;2023-05-20T03:13:33;11.50;99.90
8856;DHT22;4464;50.882;4.730;2023-05-20T03:15:59;11.40;99.90
8856;DHT22;4464;50.882;4.730;2023-05-20T03:18:26;11.40;99.90
8856;DHT22;4464;50.882;4.730;2023-05-20T03:20:52;11.40;99.90
8856;DHT22;4464;50.882;4.730;2023-05-20T03:23:17;11.40;99.90
8856;DHT22;4464;50.882;4.730;2023-05-20T03:25:43;11.30;99.90
8856;DHT22;4464;50.882;4.730;2023-05-20T03:28:09;11.20;99.90
8856;DHT22;4464;50.882;4.730;2023-05-20T03:30:35;11.20;99.90
8856;DHT22;4464;50.882;4.730;2023-05-20T03:33:03;11.20;99.90
8856;DHT22;4464;50.882;4.730;2023-05-20T03:35:32;11.20;99.90
8856;DHT22;4464;50.882;4.730;2023-05-20T03:38:00;11.20;99.90
8856;DHT22;4464;50.882;4.730;2023-05-20T03:40:31;11.20;99.90
8856;DHT22;4464;50.882;4.730;2023-05-20T03:42:57;11.20;99.90
8856;DHT22;4464;50.882;4.730;2023-05-20T03:45:27;11.20;99.90
8856;DHT22;4464;50.882;4.730;2023-05-20T03:47:55;11.20;99.90
8856;DHT22;4464;50.882;4.730;2023-05-20T03:50:23;11.20;99.90
8856;DHT22;4464;50.882;4.730;2023-05-20T03:52:48;11.20;99.90
8856;DHT22;4464;50.882;4.730;2023-05-20T03:55:14;11.20;99.90
8856;DHT22;4464;50.882;4.730;2023-05-20T03:57:44;11.20;99.90
8856;DHT22;4464;50.882;4.730;2023-05-20T04:00:10;11.20;99.90
8856;DHT22;4464;50.882;4.730;2023-05-20T04:02:39;11.30;99.90
8856;DHT22;4464;50.882;4.730;2023-05-20T04:05:07;11.30;99.90
8856;DHT22;4464;50.882;4.730;2023-05-20T04:07:35;11.30;99.90
8856;DHT22;4464;50.882;4.730;2023-05-20T04:10:01;11.30;99.90
8856;DHT22;4464;50.882;4.730;2023-05-20T04:12:27;11.40;99.90
8856;DHT22;4464;50.882;4.730;2023-05-20T04:14:58;11.40;99.90
8856;DHT22;4464;50.882;4.730;2023-05-20T04:17:27;11.50;99.90
8856;DHT22;4464;50.882;4.730;2023-05-20T04:19:59;11.50;99.90
8856;DHT22;4464;50.882;4.730;2023-05-20T04:22:25;11.60;99.90
8856;DHT22;4464;50.882;4.730;2023-05-20T04:24:51;11.60;99.90
8856;DHT22;4464;50.882;4.730;2023-05-20T04:27:17;11.60;99.90
8856;DHT22;4464;50.882;4.730;2023-05-20T04:29:42;11.70;99.90
8856;DHT22;4464;50.882;4.730;2023-05-20T04:32:18;11.70;99.90
8856;DHT22;4464;50.882;4.730;2023-05-20T04:34:45;11.80;99.90
8856;DHT22;4464;50.882;4.730;2023-05-20T04:37:13;11.90;99.90
8856;DHT22;4464;50.882;4.730;2023-05-20T04:39:39;11.90;99.90
8856;DHT22;4464;50.882;4.730;2023-05-20T04:42:05;11.90;99.90
8856;DHT22;4464;50.882;4.730;2023-05-20T04:44:33;11.90;99.90
8856;DHT22;4464;50.882;4.730;2023-05-20T04:47:01;12.00;99.90
8856;DHT22;4464;50.882;4.730;2023-05-20T04:49:29;12.10;99.90
8856;DHT22;4464;50.882;4.730;2023-05-20T04:51:54;12.10;99.90
8856;DHT22;4464;50.882;4.730;2023-05-20T04:54:20;12.10;99.90
8856;DHT22;4464;50.882;4.730;2023-05-20T04:56:48;12.10;99.90
8856;DHT22;4464;50.882;4.730;2023-05-20T04:59:18;12.10;99.90
8856;DHT22;4464;50.882;4.730;2023-05-20T05:01:43;12.10;99.90
8856;DHT22;4464;50.882;4.730;2023-05-20T05:04:09;12.10;99.90
8856;DHT22;4464;50.882;4.730;2023-05-20T05:06:37;12.10;99.90
8856;DHT22;4464;50.882;4.730;2023-05-20T05:09:03;12.10;99.90
8856;DHT22;4464;50.882;4.730;2023-05-20T05:11:29;12.10;99.90
8856;DHT22;4464;50.882;4.730;2023-05-20T05:13:55;12.10;99.90
8856;DHT22;4464;50.882;4.730;2023-05-20T05:16:21;12.20;99.90
8856;DHT22;4464;50.882;4.730;2023-05-20T05:18:49;12.20;99.90
8856;DHT22;4464;50.882;4.730;2023-05-20T05:21:15;12.30;99.90
8856;DHT22;4464;50.882;4.730;2023-05-20T05:23:41;12.30;99.90
8856;DHT22;4464;50.882;4.730;2023-05-20T05:26:07;12.40;99.90
8856;DHT22;4464;50.882;4.730;2023-05-20T05:28:33;12.40;99.90
8856;DHT22;4464;50.882;4.730;2023-05-20T05:30:59;12.40;99.90
8856;DHT22;4464;50.882;4.730;2023-05-20T05:33:29;12.50;99.90
8856;DHT22;4464;50.882;4.730;2023-05-20T05:35:57;12.60;99.90
8856;DHT22;4464;50.882;4.730;2023-05-20T05:38:23;12.60;99.90
8856;DHT22;4464;50.882;4.730;2023-05-20T05:40:49;12.70;99.90
8856;DHT22;4464;50.882;4.730;2023-05-20T05:43:15;12.70;99.90
8856;DHT22;4464;50.882;4.730;2023-05-20T05:45:41;12.80;99.90
8856;DHT22;4464;50.882;4.730;2023-05-20T05:48:09;12.80;99.90
8856;DHT22;4464;50.882;4.730;2023-05-20T05:50:35;12.90;99.90
8856;DHT22;4464;50.882;4.730;2023-05-20T05:53:06;12.90;99.90
8856;DHT22;4464;50.882;4.730;2023-05-20T05:55:31;12.90;99.90
8856;DHT22;4464;50.882;4.730;2023-05-20T05:57:59;13.00;99.90
8856;DHT22;4464;50.882;4.730;2023-05-20T06:00:25;13.10;99.90
8856;DHT22;4464;50.882;4.730;2023-05-20T06:02:51;13.30;99.90
8856;DHT22;4464;50.882;4.730;2023-05-20T06:05:17;13.40;99.90
8856;DHT22;4464;50.882;4.730;2023-05-20T06:07:42;13.40;99.90
8856;DHT22;4464;50.882;4.730;2023-05-20T06:10:08;13.50;99.90
8856;DHT22;4464;50.882;4.730;2023-05-20T06:12:37;13.50;99.90
8856;DHT22;4464;50.882;4.730;2023-05-20T06:15:06;13.60;99.90
8856;DHT22;4464;50.882;4.730;2023-05-20T06:17:32;13.70;99.90
8856;DHT22;4464;50.882;4.730;2023-05-20T06:19:58;13.70;99.90
8856;DHT22;4464;50.882;4.730;2023-05-20T06:22:24;13.70;99.90
8856;DHT22;4464;50.882;4.730;2023-05-20T06:24:50;13.80;99.90
8856;DHT22;4464;50.882;4.730;2023-05-20T06:27:16;13.90;99.90
8856;DHT22;4464;50.882;4.730;2023-05-20T06:29:41;14.00;99.90
8856;DHT22;4464;50.882;4.730;2023-05-20T06:32:07;14.10;99.90
8856;DHT22;4464;50.882;4.730;2023-05-20T06:34:33;14.10;99.90
8856;DHT22;4464;50.882;4.730;2023-05-20T06:36:59;14.30;99.90
8856;DHT22;4464;50.882;4.730;2023-05-20T06:39:29;14.30;99.90
8856;DHT22;4464;50.882;4.730;2023-05-20T06:41:55;14.40;99.90
8856;DHT22;4464;50.882;4.730;2023-05-20T06:44:23;14.50;99.90
8856;DHT22;4464;50.882;4.730;2023-05-20T06:46:49;14.60;99.90
8856;DHT22;4464;50.882;4.730;2023-05-20T06:49:14;14.70;99.90
8856;DHT22;4464;50.882;4.730;2023-05-20T06:51:40;14.80;99.90
8856;DHT22;4464;50.882;4.730;2023-05-20T06:54:06;14.90;99.90
8856;DHT22;4464;50.882;4.730;2023-05-20T06:56:36;15.00;99.90
8856;DHT22;4464;50.882;4.730;2023-05-20T06:59:02;15.10;99.90
8856;DHT22;4464;50.882;4.730;2023-05-20T07:01:27;15.10;99.90
8856;DHT22;4464;50.882;4.730;2023-05-20T07:03:53;15.20;99.90
8856;DHT22;4464;50.882;4.730;2023-05-20T07:06:19;15.30;99.90
8856;DHT22;4464;50.882;4.730;2023-05-20T07:08:47;15.40;99.90
8856;DHT22;4464;50.882;4.730;2023-05-20T07:11:15;15.50;99.90
8856;DHT22;4464;50.882;4.730;2023-05-20T07:13:40;15.50;99.90
8856;DHT22;4464;50.882;4.730;2023-05-20T07:16:06;15.70;99.90
8856;DHT22;4464;50.882;4.730;2023-05-20T07:18:36;15.90;99.90
8856;DHT22;4464;50.882;4.730;2023-05-20T07:21:04;16.00;99.90
8856;DHT22;4464;50.882;4.730;2023-05-20T07:23:32;16.00;99.90
8856;DHT22;4464;50.882;4.730;2023-05-20T07:25:58;16.20;99.90
8856;DHT22;4464;50.882;4.730;2023-05-20T07:28:24;16.30;99.90
8856;DHT22;4464;50.882;4.730;2023-05-20T07:30:52;16.30;99.90
8856;DHT22;4464;50.882;4.730;2023-05-20T07:33:21;16.40;99.90
8856;DHT22;4464;50.882;4.730;2023-05-20T07:35:47;16.50;99.90
8856;DHT22;4464;50.882;4.730;2023-05-20T07:38:13;16.60;99.90
8856;DHT22;4464;50.882;4.730;2023-05-20T07:40:41;16.70;99.60
8856;DHT22;4464;50.882;4.730;2023-05-20T07:43:07;16.80;99.30
8856;DHT22;4464;50.882;4.730;2023-05-20T07:45:34;16.80;99.10
8856;DHT22;4464;50.882;4.730;2023-05-20T07:48:01;17.00;99.10
8856;DHT22;4464;50.882;4.730;2023-05-20T07:50:27;17.00;98.70
8856;DHT22;4464;50.882;4.730;2023-05-20T07:52:53;17.20;98.60
8856;DHT22;4464;50.882;4.730;2023-05-20T07:55:21;17.30;98.40
8856;DHT22;4464;50.882;4.730;2023-05-20T07:57:49;17.40;97.90
8856;DHT22;4464;50.882;4.730;2023-05-20T08:00:15;17.40;97.60
8856;DHT22;4464;50.882;4.730;2023-05-20T08:02:41;17.50;97.20
8856;DHT22;4464;50.882;4.730;2023-05-20T08:05:07;17.60;97.50
8856;DHT22;4464;50.882;4.730;2023-05-20T08:07:33;17.60;97.40
8856;DHT22;4464;50.882;4.730;2023-05-20T08:09:59;17.60;96.90
8856;DHT22;4464;50.882;4.730;2023-05-20T08:12:25;17.60;96.30
8856;DHT22;4464;50.882;4.730;2023-05-20T08:14:52;17.70;96.40
8856;DHT22;4464;50.882;4.730;2023-05-20T08:17:18;17.80;96.10
8856;DHT22;4464;50.882;4.730;2023-05-20T08:19:44;17.80;96.20
8856;DHT22;4464;50.882;4.730;2023-05-20T08:22:10;17.80;95.80
8856;DHT22;4464;50.882;4.730;2023-05-20T08:24:39;17.80;95.70
8856;DHT22;4464;50.882;4.730;2023-05-20T08:27:05;18.00;96.20
8856;DHT22;4464;50.882;4.730;2023-05-20T08:29:31;18.10;96.00
8856;DHT22;4464;50.882;4.730;2023-05-20T08:31:59;18.30;95.60
8856;DHT22;4464;50.882;4.730;2023-05-20T08:34:27;18.30;95.10
8856;DHT22;4464;50.882;4.730;2023-05-20T08:36:53;18.30;94.80
8856;DHT22;4464;50.882;4.730;2023-05-20T08:39:19;18.30;94.70
8856;DHT22;4464;50.882;4.730;2023-05-20T08:41:46;18.40;94.80
8856;DHT22;4464;50.882;4.730;2023-05-20T08:44:12;18.50;94.40
8856;DHT22;4464;50.882;4.730;2023-05-20T08:46:38;18.80;94.80
8856;DHT22;4464;50.882;4.730;2023-05-20T08:49:05;19.00;94.50
8856;DHT22;4464;50.882;4.730;2023-05-20T08:51:32;18.90;93.70
8856;DHT22;4464;50.882;4.730;2023-05-20T08:54:03;18.90;93.40
8856;DHT22;4464;50.882;4.730;2023-05-20T08:56:30;19.00;93.40
8856;DHT22;4464;50.882;4.730;2023-05-20T08:58:57;19.10;93.70
8856;DHT22;4464;50.882;4.730;2023-05-20T09:01:23;19.40;93.70
8856;DHT22;4464;50.882;4.730;2023-05-20T09:03:52;19.60;93.40
8856;DHT22;4464;50.882;4.730;2023-05-20T09:06:18;19.80;92.90
8856;DHT22;4464;50.882;4.730;2023-05-20T09:08:47;19.90;92.40
8856;DHT22;4464;50.882;4.730;2023-05-20T09:11:13;20.20;92.80
8856;DHT22;4464;50.882;4.730;2023-05-20T09:13:39;21.00;92.00
8856;DHT22;4464;50.882;4.730;2023-05-20T09:16:09;22.10;90.80
8856;DHT22;4464;50.882;4.730;2023-05-20T09:18:39;23.20;88.20
8856;DHT22;4464;50.882;4.730;2023-05-20T09:21:06;24.00;86.20
8856;DHT22;4464;50.882;4.730;2023-05-20T09:23:31;23.90;84.20
8856;DHT22;4464;50.882;4.730;2023-05-20T09:25:59;24.00;83.80
8856;DHT22;4464;50.882;4.730;2023-05-20T09:28:29;24.00;83.20
8856;DHT22;4464;50.882;4.730;2023-05-20T09:30:59;24.40;82.00
8856;DHT22;4464;50.882;4.730;2023-05-20T09:33:30;23.90;82.20
8856;DHT22;4464;50.882;4.730;2023-05-20T09:36:03;23.60;82.10
8856;DHT22;4464;50.882;4.730;2023-05-20T09:38:32;23.60;82.70
8856;DHT22;4464;50.882;4.730;2023-05-20T09:41:12;23.80;81.60
8856;DHT22;4464;50.882;4.730;2023-05-20T09:43:40;24.60;80.50
8856;DHT22;4464;50.882;4.730;2023-05-20T09:46:07;25.10;79.80
8856;DHT22;4464;50.882;4.730;2023-05-20T09:48:36;25.20;78.90
8856;DHT22;4464;50.882;4.730;2023-05-20T09:51:04;25.40;78.20
8856;DHT22;4464;50.882;4.730;2023-05-20T09:53:32;25.10;78.90
8856;DHT22;4464;50.882;4.730;2023-05-20T09:56:01;25.50;78.10
8856;DHT22;4464;50.882;4.730;2023-05-20T09:58:27;25.70;77.10
8856;DHT22;4464;50.882;4.730;2023-05-20T10:00:53;26.00;76.50
8856;DHT22;4464;50.882;4.730;2023-05-20T10:03:22;25.80;76.90
8856;DHT22;4464;50.882;4.730;2023-05-20T10:14:08;25.40;75.20
8856;DHT22;4464;50.882;4.730;2023-05-20T10:17:02;26.00;76.30
8856;DHT22;4464;50.882;4.730;2023-05-20T10:19:33;26.80;74.80
8856;DHT22;4464;50.882;4.730;2023-05-20T10:24:35;26.80;74.60
8856;DHT22;4464;50.882;4.730;2023-05-20T10:27:04;25.80;73.50
8856;DHT22;4464;50.882;4.730;2023-05-20T10:32:07;26.70;73.00
8856;DHT22;4464;50.882;4.730;2023-05-20T10:34:46;26.70;72.10
8856;DHT22;4464;50.882;4.730;2023-05-20T10:37:23;26.40;72.60
8856;DHT22;4464;50.882;4.730;2023-05-20T10:39:50;26.90;73.10
8856;DHT22;4464;50.882;4.730;2023-05-20T10:42:15;26.20;75.10
8856;DHT22;4464;50.882;4.730;2023-05-20T10:44:51;26.90;73.10
8856;DHT22;4464;50.882;4.730;2023-05-20T10:47:17;27.40;72.90
8856;DHT22;4464;50.882;4.730;2023-05-20T10:49:43;27.40;70.70
8856;DHT22;4464;50.882;4.730;2023-05-20T10:52:18;26.90;70.90
8856;DHT22;4464;50.882;4.730;2023-05-20T10:55:03;27.10;72.00
8856;DHT22;4464;50.882;4.730;2023-05-20T10:57:32;26.70;72.00
8856;DHT22;4464;50.882;4.730;2023-05-20T10:59:58;26.60;73.70
8856;DHT22;4464;50.882;4.730;2023-05-20T11:02:28;27.40;72.20
8856;DHT22;4464;50.882;4.730;2023-05-20T11:04:57;27.30;71.60
8856;DHT22;4464;50.882;4.730;2023-05-20T11:07:30;27.20;73.10
8856;DHT22;4464;50.882;4.730;2023-05-20T11:09:57;27.60;70.90
8856;DHT22;4464;50.882;4.730;2023-05-20T11:12:24;27.40;70.90
8856;DHT22;4464;50.882;4.730;2023-05-20T11:14:50;27.50;72.40
8856;DHT22;4464;50.882;4.730;2023-05-20T11:17:17;28.40;71.90
8856;DHT22;4464;50.882;4.730;2023-05-20T11:19:46;29.00;70.20
8856;DHT22;4464;50.882;4.730;2023-05-20T11:22:12;28.60;69.20
8856;DHT22;4464;50.882;4.730;2023-05-20T11:24:40;28.40;69.50
8856;DHT22;4464;50.882;4.730;2023-05-20T11:27:06;29.00;70.00
8856;DHT22;4464;50.882;4.730;2023-05-20T11:29:32;30.00;68.30
8856;DHT22;4464;50.882;4.730;2023-05-20T11:31:59;29.80;67.10
8856;DHT22;4464;50.882;4.730;2023-05-20T11:34:34;29.30;67.70
8856;DHT22;4464;50.882;4.730;2023-05-20T11:37:01;30.00;68.40
8856;DHT22;4464;50.882;4.730;2023-05-20T11:39:30;30.70;66.30
8856;DHT22;4464;50.882;4.730;2023-05-20T11:41:59;29.80;66.20
8856;DHT22;4464;50.882;4.730;2023-05-20T11:44:25;29.90;66.10
8856;DHT22;4464;50.882;4.730;2023-05-20T11:47:01;29.00;67.50
8856;DHT22;4464;50.882;4.730;2023-05-20T11:49:27;29.10;69.50
8856;DHT22;4464;50.882;4.730;2023-05-20T11:51:53;29.20;67.00
8856;DHT22;4464;50.882;4.730;2023-05-20T11:54:21;29.50;68.40
8856;DHT22;4464;50.882;4.730;2023-05-20T11:56:48;29.90;68.00
8856;DHT22;4464;50.882;4.730;2023-05-20T11:59:17;30.70;67.00
8856;DHT22;4464;50.882;4.730;2023-05-20T12:01:42;30.60;65.40
8856;DHT22;4464;50.882;4.730;2023-05-20T12:04:09;29.60;65.90
8856;DHT22;4464;50.882;4.730;2023-05-20T12:06:35;29.20;67.40
8856;DHT22;4464;50.882;4.730;2023-05-20T12:09:07;29.20;66.70
8856;DHT22;4464;50.882;4.730;2023-05-20T12:11:36;29.10;67.90
8856;DHT22;4464;50.882;4.730;2023-05-20T12:14:05;29.50;67.50
8856;DHT22;4464;50.882;4.730;2023-05-20T12:16:33;31.40;65.80
8856;DHT22;4464;50.882;4.730;2023-05-20T12:18:59;31.60;64.80
8856;DHT22;4464;50.882;4.730;2023-05-20T12:21:31;29.70;64.60
8856;DHT22;4464;50.882;4.730;2023-05-20T12:23:58;28.10;67.60
8856;DHT22;4464;50.882;4.730;2023-05-20T12:26:28;28.60;68.00
8856;DHT22;4464;50.882;4.730;2023-05-20T12:28:54;28.90;68.30
8856;DHT22;4464;50.882;4.730;2023-05-20T12:31:20;29.70;66.80
8856;DHT22;4464;50.882;4.730;2023-05-20T12:33:46;30.40;66.60
8856;DHT22;4464;50.882;4.730;2023-05-20T12:36:14;30.20;65.10
8856;DHT22;4464;50.882;4.730;2023-05-20T12:38:40;28.80;67.20
8856;DHT22;4464;50.882;4.730;2023-05-20T12:41:06;27.50;69.20
8856;DHT22;4464;50.882;4.730;2023-05-20T12:43:32;28.40;70.10
8856;DHT22;4464;50.882;4.730;2023-05-20T12:45:57;28.70;68.20
8856;DHT22;4464;50.882;4.730;2023-05-20T12:48:23;28.80;68.70
8856;DHT22;4464;50.882;4.730;2023-05-20T12:50:49;28.60;68.30
8856;DHT22;4464;50.882;4.730;2023-05-20T12:53:15;29.00;67.70
8856;DHT22;4464;50.882;4.730;2023-05-20T12:55:40;28.70;68.40
8856;DHT22;4464;50.882;4.730;2023-05-20T12:58:06;28.20;68.50
8856;DHT22;4464;50.882;4.730;2023-05-20T13:00:35;27.90;69.60
8856;DHT22;4464;50.882;4.730;2023-05-20T13:03:01;27.90;69.50
8856;DHT22;4464;50.882;4.730;2023-05-20T13:05:27;28.70;67.80
8856;DHT22;4464;50.882;4.730;2023-05-20T13:07:55;28.10;69.10
8856;DHT22;4464;50.882;4.730;2023-05-20T13:10:21;27.20;71.90
8856;DHT22;4464;50.882;4.730;2023-05-20T13:12:47;27.90;68.60
8856;DHT22;4464;50.882;4.730;2023-05-20T13:15:15;28.10;70.50
8856;DHT22;4464;50.882;4.730;2023-05-20T13:17:42;29.50;67.30
8856;DHT22;4464;50.882;4.730;2023-05-20T13:20:08;28.70;67.60
8856;DHT22;4464;50.882;4.730;2023-05-20T13:22:35;28.80;68.00
8856;DHT22;4464;50.882;4.730;2023-05-20T13:25:04;28.30;68.80
8856;DHT22;4464;50.882;4.730;2023-05-20T13:27:29;26.60;71.40
8856;DHT22;4464;50.882;4.730;2023-05-20T13:29:55;25.80;73.00
8856;DHT22;4464;50.882;4.730;2023-05-20T13:32:22;25.40;74.30
8856;DHT22;4464;50.882;4.730;2023-05-20T13:34:50;24.90;75.20
8856;DHT22;4464;50.882;4.730;2023-05-20T13:37:20;25.50;75.40
8856;DHT22;4464;50.882;4.730;2023-05-20T13:39:48;25.90;74.80
8856;DHT22;4464;50.882;4.730;2023-05-20T13:42:16;25.40;74.20
8856;DHT22;4464;50.882;4.730;2023-05-20T13:44:42;25.30;75.40
8856;DHT22;4464;50.882;4.730;2023-05-20T13:47:08;25.60;76.00
8856;DHT22;4464;50.882;4.730;2023-05-20T13:49:33;25.50;75.40
8856;DHT22;4464;50.882;4.730;2023-05-20T13:51:59;25.00;77.30
8856;DHT22;4464;50.882;4.730;2023-05-20T13:54:25;24.60;77.00
8856;DHT22;4464;50.882;4.730;2023-05-20T13:56:54;24.70;77.70
8856;DHT22;4464;50.882;4.730;2023-05-20T13:59:20;24.40;76.80
8856;DHT22;4464;50.882;4.730;2023-05-20T14:01:46;24.30;78.40
8856;DHT22;4464;50.882;4.730;2023-05-20T14:04:12;24.00;79.10
8856;DHT22;4464;50.882;4.730;2023-05-20T14:06:38;23.80;79.70
8856;DHT22;4464;50.882;4.730;2023-05-20T14:09:09;23.30;80.20
8856;DHT22;4464;50.882;4.730;2023-05-20T14:11:39;23.20;80.60
8856;DHT22;4464;50.882;4.730;2023-05-20T14:14:05;23.10;81.00
8856;DHT22;4464;50.882;4.730;2023-05-20T14:16:33;23.10;80.30
8856;DHT22;4464;50.882;4.730;2023-05-20T14:18:59;23.00;80.80
8856;DHT22;4464;50.882;4.730;2023-05-20T14:21:24;23.00;82.20
8856;DHT22;4464;50.882;4.730;2023-05-20T14:23:50;23.10;81.90
8856;DHT22;4464;50.882;4.730;2023-05-20T14:26:16;23.20;81.50
8856;DHT22;4464;50.882;4.730;2023-05-20T14:28:45;23.20;81.10
8856;DHT22;4464;50.882;4.730;2023-05-20T14:31:12;23.40;82.00
8856;DHT22;4464;50.882;4.730;2023-05-20T14:33:38;23.40;82.10
8856;DHT22;4464;50.882;4.730;2023-05-20T14:36:04;23.10;81.30
8856;DHT22;4464;50.882;4.730;2023-05-20T14:38:32;22.90;81.20
8856;DHT22;4464;50.882;4.730;2023-05-20T14:40:58;22.50;82.50
8856;DHT22;4464;50.882;4.730;2023-05-20T14:43:24;22.50;82.80
8856;DHT22;4464;50.882;4.730;2023-05-20T14:45:54;22.60;82.60
8856;DHT22;4464;50.882;4.730;2023-05-20T14:48:20;22.70;83.20
8856;DHT22;4464;50.882;4.730;2023-05-20T14:50:45;22.80;83.80
8856;DHT22;4464;50.882;4.730;2023-05-20T14:53:11;23.00;83.50
8856;DHT22;4464;50.882;4.730;2023-05-20T14:55:37;23.00;83.30
8856;DHT22;4464;50.882;4.730;2023-05-20T14:58:03;23.00;83.70
8856;DHT22;4464;50.882;4.730;2023-05-20T15:00:28;22.90;83.10
8856;DHT22;4464;50.882;4.730;2023-05-20T15:02:54;22.90;83.20
8856;DHT22;4464;50.882;4.730;2023-05-20T15:05:20;22.60;83.10
8856;DHT22;4464;50.882;4.730;2023-05-20T15:07:46;22.50;84.40
8856;DHT22;4464;50.882;4.730;2023-05-20T15:10:16;22.30;83.70
8856;DHT22;4464;50.882;4.730;2023-05-20T15:12:42;22.40;84.90
8856;DHT22;4464;50.882;4.730;2023-05-20T15:15:08;22.40;84.70
8856;DHT22;4464;50.882;4.730;2023-05-20T15:17:34;22.40;85.20
8856;DHT22;4464;50.882;4.730;2023-05-20T15:20:00;22.40;85.50
8856;DHT22;4464;50.882;4.730;2023-05-20T15:22:28;22.20;85.20
8856;DHT22;4464;50.882;4.730;2023-05-20T15:24:56;22.60;85.90
8856;DHT22;4464;50.882;4.730;2023-05-20T15:27:24;22.70;84.70
8856;DHT22;4464;50.882;4.730;2023-05-20T15:29:50;22.60;84.80
8856;DHT22;4464;50.882;4.730;2023-05-20T15:32:18;22.80;84.00
8856;DHT22;4464;50.882;4.730;2023-05-20T15:34:46;22.80;84.00
8856;DHT22;4464;50.882;4.730;2023-05-20T15:37:14;22.70;84.80
8856;DHT22;4464;50.882;4.730;2023-05-20T15:39:40;23.50;84.20
8856;DHT22;4464;50.882;4.730;2023-05-20T15:42:06;25.30;81.20
8856;DHT22;4464;50.882;4.730;2023-05-20T15:44:34;25.10;78.70
8856;DHT22;4464;50.882;4.730;2023-05-20T15:47:00;24.50;79.30
8856;DHT22;4464;50.882;4.730;2023-05-20T15:49:29;24.50;80.80
8856;DHT22;4464;50.882;4.730;2023-05-20T15:51:55;25.00;80.10
8856;DHT22;4464;50.882;4.730;2023-05-20T15:54:20;25.70;79.20
8856;DHT22;4464;50.882;4.730;2023-05-20T15:56:48;26.60;77.90
8856;DHT22;4464;50.882;4.730;2023-05-20T15:59:14;26.50;76.60
8856;DHT22;4464;50.882;4.730;2023-05-20T16:01:42;26.00;77.90
8856;DHT22;4464;50.882;4.730;2023-05-20T16:04:12;25.80;78.10
8856;DHT22;4464;50.882;4.730;2023-05-20T16:06:40;25.20;80.00
8856;DHT22;4464;50.882;4.730;2023-05-20T16:09:06;25.30;80.40
8856;DHT22;4464;50.882;4.730;2023-05-20T16:11:32;26.20;78.60
8856;DHT22;4464;50.882;4.730;2023-05-20T16:13:58;27.00;77.70
8856;DHT22;4464;50.882;4.730;2023-05-20T16:16:24;26.80;75.50
8856;DHT22;4464;50.882;4.730;2023-05-20T16:18:53;25.50;77.10